sensor_id;sensor_type;location;lat;lon;timestamp;pressure;altitude;pressure_sealevel;temperature;humidity
13661;BME280;6903;49.480;11.102;2022-08-19T00:02:12;97296.59;;;20.64;100.00
13661;BME280;6903;49.480;11.102;2022-08-19T00:04:37;97297.03;;;20.67;100.00
13661;BME280;6903;49.480;11.102;2022-08-19T00:07:04;97287.38;;;20.73;100.00
13661;BME280;6903;49.480;11.102;2022-08-19T00:09:30;97292.94;;;20.71;100.00
13661;BME280;6903;49.480;11.102;2022-08-19T00:11:56;97287.75;;;20.70;100.00
13661;BME280;6903;49.480;11.102;2022-08-19T00:14:23;97290.88;;;20.73;100.00
13661;BME280;6903;49.480;11.102;2022-08-19T00:16:49;97297.06;;;20.74;100.00
13661;BME280;6903;49.480;11.102;2022-08-19T00:19:19;97275.59;;;20.67;100.00
13661;BME280;6903;49.480;11.102;2022-08-19T00:21:44;97282.19;;;20.65;100.00
13661;BME280;6903;49.480;11.102;2022-08-19T00:24:12;97283.00;;;20.65;100.00
13661;BME280;6903;49.480;11.102;2022-08-19T00:26:37;97288.16;;;20.67;100.00
13661;BME280;6903;49.480;11.102;2022-08-19T00:29:05;97279.31;;;20.66;100.00
13661;BME280;6903;49.480;11.102;2022-08-19T00:31:32;97285.91;;;20.70;100.00
13661;BME280;6903;49.480;11.102;2022-08-19T00:33:57;97277.91;;;20.77;100.00
13661;BME280;6903;49.480;11.102;2022-08-19T00:36:23;97280.56;;;20.77;100.00
13661;BME280;6903;49.480;11.102;2022-08-19T00:38:48;97281.63;;;20.76;100.00
13661;BME280;6903;49.480;11.102;2022-08-19T00:41:18;97291.72;;;20.80;100.00
13661;BME280;6903;49.480;11.102;2022-08-19T00:44:08;97292.56;;;20.81;100.00
13661;BME280;6903;49.480;11.102;2022-08-19T00:46:35;97294.84;;;20.84;100.00
13661;BME280;6903;49.480;11.102;2022-08-19T00:49:07;97292.75;;;20.86;100.00
13661;BME280;6903;49.480;11.102;2022-08-19T00:51:35;97303.47;;;20.86;100.00
13661;BME280;6903;49.480;11.102;2022-08-19T00:54:02;97306.78;;;20.88;100.00
13661;BME280;6903;49.480;11.102;2022-08-19T00:56:28;97306.19;;;20.92;100.00
13661;BME280;6903;49.480;11.102;2022-08-19T00:58:56;97311.22;;;21.02;100.00
13661;BME280;6903;49.480;11.102;2022-08-19T01:01:23;97306.25;;;21.05;100.00
13661;BME280;6903;49.480;11.102;2022-08-19T01:03:48;97311.41;;;21.14;100.00
13661;BME280;6903;49.480;11.102;2022-08-19T01:06:14;97303.78;;;21.17;100.00
13661;BME280;6903;49.480;11.102;2022-08-19T01:08:39;97299.91;;;21.20;100.00
13661;BME280;6903;49.480;11.102;2022-08-19T01:11:06;97293.91;;;21.18;100.00
13661;BME280;6903;49.480;11.102;2022-08-19T01:13:33;97299.47;;;21.16;100.00
13661;BME280;6903;49.480;11.102;2022-08-19T01:16:08;97303.16;;;21.15;100.00
13661;BME280;6903;49.480;11.102;2022-08-19T01:18:40;97312.03;;;21.16;100.00
13661;BME280;6903;49.480;11.102;2022-08-19T01:21:22;97302.97;;;21.17;100.00
13661;BME280;6903;49.480;11.102;2022-08-19T01:23:49;97314.53;;;21.17;100.00
13661;BME280;6903;49.480;11.102;2022-08-19T01:26:18;97308.53;;;21.15;100.00
13661;BME280;6903;49.480;11.102;2022-08-19T01:28:46;97312.88;;;21.16;100.00
13661;BME280;6903;49.480;11.102;2022-08-19T01:31:15;97306.47;;;21.17;100.00
13661;BME280;6903;49.480;11.102;2022-08-19T01:33:41;97306.91;;;21.21;100.00
13661;BME280;6903;49.480;11.102;2022-08-19T01:36:13;97305.88;;;21.22;100.00
13661;BME280;6903;49.480;11.102;2022-08-19T01:38:41;97305.88;;;21.22;100.00
13661;BME280;6903;49.480;11.102;2022-08-19T01:41:09;97315.59;;;21.29;100.00
13661;BME280;6903;49.480;11.102;2022-08-19T01:43:35;97320.75;;;21.31;100.00
13661;BME280;6903;49.480;11.102;2022-08-19T01:46:01;97321.97;;;21.28;100.00
13661;BME280;6903;49.480;11.102;2022-08-19T01:48:33;97310.63;;;21.20;100.00
13661;BME280;6903;49.480;11.102;2022-08-19T01:50:59;97316.59;;;21.22;100.00
13661;BME280;6903;49.480;11.102;2022-08-19T01:53:24;97325.47;;;21.22;100.00
13661;BME280;6903;49.480;11.102;2022-08-19T01:55:49;97336.81;;;21.24;100.00
13661;BME280;6903;49.480;11.102;2022-08-19T01:58:19;97329.41;;;21.26;100.00
13661;BME280;6903;49.480;11.102;2022-08-19T02:00:46;97329.59;;;21.31;100.00
13661;BME280;6903;49.480;11.102;2022-08-19T02:03:12;97337.66;;;21.38;100.00
13661;BME280;6903;49.480;11.102;2022-08-19T02:05:39;97322.81;;;21.35;100.00
13661;BME280;6903;49.480;11.102;2022-08-19T02:08:05;97333.94;;;21.32;100.00
13661;BME280;6903;49.480;11.102;2022-08-19T02:10:30;97320.13;;;21.35;100.00
13661;BME280;6903;49.480;11.102;2022-08-19T02:12:57;97321.56;;;21.31;100.00
13661;BME280;6903;49.480;11.102;2022-08-19T02:15:22;97327.34;;;21.35;100.00
13661;BME280;6903;49.480;11.102;2022-08-19T02:17:47;97340.53;;;21.30;100.00
13661;BME280;6903;49.480;11.102;2022-08-19T02:20:13;97358.94;;;21.33;100.00
13661;BME280;6903;49.480;11.102;2022-08-19T02:22:40;97367.16;;;21.31;100.00
13661;BME280;6903;49.480;11.102;2022-08-19T02:25:08;97369.81;;;21.31;100.00
13661;BME280;6903;49.480;11.102;2022-08-19T02:27:34;97372.72;;;21.30;100.00
13661;BME280;6903;49.480;11.102;2022-08-19T02:29:59;97372.50;;;21.31;100.00
13661;BME280;6903;49.480;11.102;2022-08-19T02:32:25;97363.22;;;21.27;100.00
13661;BME280;6903;49.480;11.102;2022-08-19T02:34:51;97368.63;;;21.34;100.00
13661;BME280;6903;49.480;11.102;2022-08-19T02:37:16;97363.25;;;21.34;100.00
13661;BME280;6903;49.480;11.102;2022-08-19T02:40:00;97367.34;;;21.30;100.00
13661;BME280;6903;49.480;11.102;2022-08-19T02:42:26;97369.44;;;21.28;100.00
13661;BME280;6903;49.480;11.102;2022-08-19T02:44:51;97377.09;;;21.37;100.00
13661;BME280;6903;49.480;11.102;2022-08-19T02:47:18;97385.56;;;21.41;100.00
13661;BME280;6903;49.480;11.102;2022-08-19T02:49:45;97388.03;;;21.42;100.00
13661;BME280;6903;49.480;11.102;2022-08-19T02:52:11;97386.78;;;21.45;100.00
13661;BME280;6903;49.480;11.102;2022-08-19T02:54:37;97389.25;;;21.46;100.00
13661;BME280;6903;49.480;11.102;2022-08-19T02:57:03;97374.63;;;21.49;100.00
13661;BME280;6903;49.480;11.102;2022-08-19T02:59:32;97377.91;;;21.44;100.00
13661;BME280;6903;49.480;11.102;2022-08-19T03:01:57;97377.69;;;21.46;100.00
13661;BME280;6903;49.480;11.102;2022-08-19T03:04:23;97379.56;;;21.45;100.00
13661;BME280;6903;49.480;11.102;2022-08-19T03:06:49;97369.63;;;21.39;100.00
13661;BME280;6903;49.480;11.102;2022-08-19T03:09:15;97376.03;;;21.38;100.00
13661;BME280;6903;49.480;11.102;2022-08-19T03:11:41;97376.47;;;21.42;100.00
13661;BME280;6903;49.480;11.102;2022-08-19T03:14:08;97368.41;;;21.42;100.00
13661;BME280;6903;49.480;11.102;2022-08-19T03:16:41;97352.09;;;21.37;100.00
13661;BME280;6903;49.480;11.102;2022-08-19T03:19:06;97343.84;;;21.38;100.00
13661;BME280;6903;49.480;11.102;2022-08-19T03:21:33;97352.31;;;21.35;100.00
13661;BME280;6903;49.480;11.102;2022-08-19T03:24:05;97351.47;;;21.35;100.00
13661;BME280;6903;49.480;11.102;2022-08-19T03:26:32;97345.09;;;21.36;100.00
13661;BME280;6903;49.480;11.102;2022-08-19T03:29:01;97338.88;;;21.29;100.00
13661;BME280;6903;49.480;11.102;2022-08-19T03:31:27;97337.84;;;21.30;100.00
13661;BME280;6903;49.480;11.102;2022-08-19T03:33:52;97333.94;;;21.26;100.00
13661;BME280;6903;49.480;11.102;2022-08-19T03:36:20;97317.00;;;21.19;100.00
13661;BME280;6903;49.480;11.102;2022-08-19T03:38:50;97323.63;;;21.29;100.00
13661;BME280;6903;49.480;11.102;2022-08-19T03:41:19;97312.06;;;21.29;100.00
13661;BME280;6903;49.480;11.102;2022-08-19T03:43:45;97320.34;;;21.34;100.00
13661;BME280;6903;49.480;11.102;2022-08-19T03:46:24;97319.09;;;21.36;100.00
13661;BME280;6903;49.480;11.102;2022-08-19T03:48:52;97323.88;;;21.41;100.00
13661;BME280;6903;49.480;11.102;2022-08-19T03:51:27;97329.59;;;21.31;100.00
13661;BME280;6903;49.480;11.102;2022-08-19T03:53:55;97344.06;;;21.37;100.00
13661;BME280;6903;49.480;11.102;2022-08-19T03:56:21;97326.13;;;21.31;100.00
13661;BME280;6903;49.480;11.102;2022-08-19T03:58:46;97316.41;;;21.36;100.00
13661;BME280;6903;49.480;11.102;2022-08-19T04:01:16;97313.31;;;21.39;100.00
13661;BME280;6903;49.480;11.102;2022-08-19T04:03:41;97309.84;;;21.45;100.00
13661;BME280;6903;49.480;11.102;2022-08-19T04:06:12;97306.72;;;21.42;100.00
13661;BME280;6903;49.480;11.102;2022-08-19T04:08:40;97305.47;;;21.38;100.00
13661;BME280;6903;49.480;11.102;2022-08-19T04:11:07;97313.50;;;21.38;100.00
13661;BME280;6903;49.480;11.102;2022-08-19T04:13:33;97317.03;;;21.38;100.00
13661;BME280;6903;49.480;11.102;2022-08-19T04:15:59;97323.44;;;21.31;100.00
13661;BME280;6903;49.480;11.102;2022-08-19T04:18:24;97331.47;;;21.31;100.00
13661;BME280;6903;49.480;11.102;2022-08-19T04:20:51;97342.41;;;21.36;100.00
13661;BME280;6903;49.480;11.102;2022-08-19T04:23:16;97338.06;;;21.35;100.00
13661;BME280;6903;49.480;11.102;2022-08-19T04:25:43;97348.38;;;21.31;100.00
13661;BME280;6903;49.480;11.102;2022-08-19T04:28:10;97349.44;;;21.37;100.00
13661;BME280;6903;49.480;11.102;2022-08-19T04:30:41;97357.69;;;21.42;100.00
13661;BME280;6903;49.480;11.102;2022-08-19T04:33:08;97362.44;;;21.46;100.00
13661;BME280;6903;49.480;11.102;2022-08-19T04:35:36;97364.28;;;21.46;100.00
13661;BME280;6903;49.480;11.102;2022-08-19T04:38:01;97362.44;;;21.40;100.00
13661;BME280;6903;49.480;11.102;2022-08-19T04:40:27;97373.56;;;21.37;100.00
13661;BME280;6903;49.480;11.102;2022-08-19T04:43:11;97376.25;;;21.37;100.00
13661;BME280;6903;49.480;11.102;2022-08-19T04:45:38;97387.59;;;21.39;100.00
13661;BME280;6903;49.480;11.102;2022-08-19T04:48:04;97381.63;;;21.43;100.00
13661;BME280;6903;49.480;11.102;2022-08-19T04:50:30;97389.25;;;21.40;100.00
13661;BME280;6903;49.480;11.102;2022-08-19T04:52:55;97398.16;;;21.47;100.00
13661;BME280;6903;49.480;11.102;2022-08-19T04:55:21;97402.69;;;21.53;100.00
13661;BME280;6903;49.480;11.102;2022-08-19T04:57:46;97394.66;;;21.59;100.00
13661;BME280;6903;49.480;11.102;2022-08-19T05:00:12;97402.28;;;21.62;100.00
13661;BME280;6903;49.480;11.102;2022-08-19T05:02:37;97390.13;;;21.60;100.00
13661;BME280;6903;49.480;11.102;2022-08-19T05:05:03;97398.19;;;21.73;100.00
13661;BME280;6903;49.480;11.102;2022-08-19T05:07:30;97400.28;;;21.77;100.00
13661;BME280;6903;49.480;11.102;2022-08-19T05:09:56;97412.03;;;21.76;100.00
13661;BME280;6903;49.480;11.102;2022-08-19T05:12:21;97417.41;;;21.76;100.00
13661;BME280;6903;49.480;11.102;2022-08-19T05:14:47;97432.66;;;21.69;100.00
13661;BME280;6903;49.480;11.102;2022-08-19T05:17:13;97442.56;;;21.69;100.00
13661;BME280;6903;49.480;11.102;2022-08-19T05:19:39;97446.50;;;21.66;100.00
13661;BME280;6903;49.480;11.102;2022-08-19T05:22:23;97438.22;;;21.68;100.00
13661;BME280;6903;49.480;11.102;2022-08-19T05:24:58;97444.25;;;21.76;100.00
13661;BME280;6903;49.480;11.102;2022-08-19T05:27:23;97438.69;;;21.91;100.00
13661;BME280;6903;49.480;11.102;2022-08-19T05:29:49;97441.38;;;22.04;100.00
13661;BME280;6903;49.480;11.102;2022-08-19T05:32:14;97427.34;;;22.15;100.00
13661;BME280;6903;49.480;11.102;2022-08-19T05:34:39;97433.13;;;22.25;100.00
13661;BME280;6903;49.480;11.102;2022-08-19T05:37:06;97436.84;;;22.37;100.00
13661;BME280;6903;49.480;11.102;2022-08-19T05:39:35;97440.75;;;22.41;100.00
13661;BME280;6903;49.480;11.102;2022-08-19T05:42:04;97436.63;;;22.45;100.00
13661;BME280;6903;49.480;11.102;2022-08-19T05:44:33;97432.31;;;22.57;100.00
13661;BME280;6903;49.480;11.102;2022-08-19T05:47:00;97440.13;;;22.65;100.00
13661;BME280;6903;49.480;11.102;2022-08-19T05:49:27;97434.31;;;22.81;100.00
13661;BME280;6903;49.480;11.102;2022-08-19T05:51:53;97440.06;;;22.91;100.00
13661;BME280;6903;49.480;11.102;2022-08-19T05:54:21;97437.13;;;23.12;100.00
13661;BME280;6903;49.480;11.102;2022-08-19T05:56:49;97441.19;;;23.34;100.00
13661;BME280;6903;49.480;11.102;2022-08-19T05:59:16;97432.81;;;23.49;100.00
13661;BME280;6903;49.480;11.102;2022-08-19T06:01:44;97429.81;;;23.70;100.00
13661;BME280;6903;49.480;11.102;2022-08-19T06:04:11;97435.34;;;24.13;100.00
13661;BME280;6903;49.480;11.102;2022-08-19T06:06:36;97428.03;;;24.69;100.00
13661;BME280;6903;49.480;11.102;2022-08-19T06:09:04;97419.53;;;25.20;100.00
13661;BME280;6903;49.480;11.102;2022-08-19T06:14:03;97410.69;;;25.78;100.00
13661;BME280;6903;49.480;11.102;2022-08-19T06:16:29;97413.09;;;25.98;100.00
13661;BME280;6903;49.480;11.102;2022-08-19T06:19:02;97416.06;;;26.19;100.00
13661;BME280;6903;49.480;11.102;2022-08-19T06:21:29;97415.63;;;26.45;100.00
13661;BME280;6903;49.480;11.102;2022-08-19T06:23:55;97412.00;;;26.40;100.00
13661;BME280;6903;49.480;11.102;2022-08-19T06:26:21;97410.34;;;26.39;100.00
13661;BME280;6903;49.480;11.102;2022-08-19T06:28:48;97409.75;;;26.37;100.00
13661;BME280;6903;49.480;11.102;2022-08-19T06:31:14;97410.59;;;26.49;100.00
13661;BME280;6903;49.480;11.102;2022-08-19T06:33:44;97408.00;;;26.42;100.00
13661;BME280;6903;49.480;11.102;2022-08-19T06:36:37;97407.16;;;26.30;100.00
13661;BME280;6903;49.480;11.102;2022-08-19T06:39:10;97406.13;;;26.43;100.00
13661;BME280;6903;49.480;11.102;2022-08-19T06:41:41;97411.28;;;26.44;100.00
13661;BME280;6903;49.480;11.102;2022-08-19T06:44:07;97415.16;;;26.48;100.00
13661;BME280;6903;49.480;11.102;2022-08-19T06:46:33;97420.44;;;26.43;100.00
13661;BME280;6903;49.480;11.102;2022-08-19T06:48:59;97425.63;;;26.22;100.00
13661;BME280;6903;49.480;11.102;2022-08-19T06:51:24;97429.75;;;25.95;100.00
13661;BME280;6903;49.480;11.102;2022-08-19T06:53:52;97430.28;;;25.74;100.00
13661;BME280;6903;49.480;11.102;2022-08-19T06:56:22;97447.00;;;25.35;100.00
13661;BME280;6903;49.480;11.102;2022-08-19T06:58:50;97438.09;;;24.98;100.00
13661;BME280;6903;49.480;11.102;2022-08-19T07:01:18;97435.06;;;24.70;100.00
13661;BME280;6903;49.480;11.102;2022-08-19T07:03:43;97444.47;;;24.61;100.00
13661;BME280;6903;49.480;11.102;2022-08-19T07:06:11;97453.00;;;24.58;100.00
13661;BME280;6903;49.480;11.102;2022-08-19T07:08:39;97452.09;;;24.64;100.00
13661;BME280;6903;49.480;11.102;2022-08-19T07:11:10;97447.84;;;24.74;100.00
13661;BME280;6903;49.480;11.102;2022-08-19T07:13:37;97455.63;;;24.64;100.00
13661;BME280;6903;49.480;11.102;2022-08-19T07:16:12;97454.03;;;24.57;100.00
13661;BME280;6903;49.480;11.102;2022-08-19T07:18:38;97448.84;;;24.55;100.00
13661;BME280;6903;49.480;11.102;2022-08-19T07:23:29;97453.34;;;24.43;100.00
13661;BME280;6903;49.480;11.102;2022-08-19T07:25:54;97459.53;;;24.44;100.00
13661;BME280;6903;49.480;11.102;2022-08-19T07:28:20;97467.84;;;24.42;100.00
13661;BME280;6903;49.480;11.102;2022-08-19T07:30:45;97470.00;;;24.34;100.00
13661;BME280;6903;49.480;11.102;2022-08-19T07:33:11;97470.09;;;24.21;100.00
13661;BME280;6903;49.480;11.102;2022-08-19T07:35:36;97469.94;;;24.16;100.00
13661;BME280;6903;49.480;11.102;2022-08-19T07:38:02;97465.78;;;24.13;100.00
13661;BME280;6903;49.480;11.102;2022-08-19T07:40:28;97468.47;;;24.13;100.00
13661;BME280;6903;49.480;11.102;2022-08-19T07:42:54;97474.78;;;24.01;100.00
13661;BME280;6903;49.480;11.102;2022-08-19T07:45:19;97475.91;;;23.87;100.00
13661;BME280;6903;49.480;11.102;2022-08-19T07:47:45;97483.44;;;23.71;100.00
13661;BME280;6903;49.480;11.102;2022-08-19T07:50:10;97478.03;;;23.40;100.00
13661;BME280;6903;49.480;11.102;2022-08-19T07:52:37;97477.00;;;23.22;100.00
13661;BME280;6903;49.480;11.102;2022-08-19T07:55:09;97470.25;;;23.06;100.00
13661;BME280;6903;49.480;11.102;2022-08-19T07:57:35;97470.69;;;23.03;100.00
13661;BME280;6903;49.480;11.102;2022-08-19T08:00:01;97473.13;;;23.11;100.00
13661;BME280;6903;49.480;11.102;2022-08-19T08:02:26;97472.47;;;23.22;100.00
13661;BME280;6903;49.480;11.102;2022-08-19T08:04:52;97470.22;;;23.26;100.00
13661;BME280;6903;49.480;11.102;2022-08-19T08:07:36;97464.19;;;23.24;100.00
13661;BME280;6903;49.480;11.102;2022-08-19T08:10:20;97466.88;;;23.30;100.00
13661;BME280;6903;49.480;11.102;2022-08-19T08:12:45;97451.09;;;23.47;100.00
13661;BME280;6903;49.480;11.102;2022-08-19T08:15:13;97460.28;;;23.64;100.00
13661;BME280;6903;49.480;11.102;2022-08-19T08:17:43;97449.06;;;23.73;100.00
13661;BME280;6903;49.480;11.102;2022-08-19T08:20:09;97467.00;;;23.86;100.00
13661;BME280;6903;49.480;11.102;2022-08-19T08:22:35;97460.03;;;23.72;100.00
13661;BME280;6903;49.480;11.102;2022-08-19T08:25:22;97445.91;;;23.76;100.00
13661;BME280;6903;49.480;11.102;2022-08-19T08:27:49;97449.31;;;24.03;100.00
13661;BME280;6903;49.480;11.102;2022-08-19T08:30:20;97453.59;;;24.11;100.00
13661;BME280;6903;49.480;11.102;2022-08-19T08:32:47;97446.72;;;24.15;100.00
13661;BME280;6903;49.480;11.102;2022-08-19T08:35:15;97444.84;;;24.15;100.00
13661;BME280;6903;49.480;11.102;2022-08-19T08:37:42;97444.53;;;24.30;100.00
13661;BME280;6903;49.480;11.102;2022-08-19T08:40:18;97440.59;;;24.32;100.00
13661;BME280;6903;49.480;11.102;2022-08-19T08:43:40;97437.56;;;24.47;100.00
13661;BME280;6903;49.480;11.102;2022-08-19T08:45:51;97451.31;;;24.57;100.00
13661;BME280;6903;49.480;11.102;2022-08-19T08:48:54;97451.78;;;24.54;100.00
13661;BME280;6903;49.480;11.102;2022-08-19T08:51:29;97462.09;;;24.57;100.00
13661;BME280;6903;49.480;11.102;2022-08-19T08:53:58;97453.38;;;24.37;100.00
13661;BME280;6903;49.480;11.102;2022-08-19T08:56:24;97458.72;;;24.19;100.00
13661;BME280;6903;49.480;11.102;2022-08-19T08:59:07;97458.41;;;24.02;100.00
13661;BME280;6903;49.480;11.102;2022-08-19T09:01:35;97462.50;;;23.73;100.00
13661;BME280;6903;49.480;11.102;2022-08-19T09:04:05;97462.34;;;23.68;100.00
13661;BME280;6903;49.480;11.102;2022-08-19T09:07:09;97464.28;;;23.55;100.00
13661;BME280;6903;49.480;11.102;2022-08-19T09:09:42;97470.63;;;23.67;100.00
13661;BME280;6903;49.480;11.102;2022-08-19T09:12:39;97465.66;;;23.70;100.00
13661;BME280;6903;49.480;11.102;2022-08-19T09:15:03;97464.28;;;23.86;100.00
13661;BME280;6903;49.480;11.102;2022-08-19T09:17:30;97463.38;;;24.05;100.00
13661;BME280;6903;49.480;11.102;2022-08-19T09:22:35;97459.41;;;24.08;100.00
13661;BME280;6903;49.480;11.102;2022-08-19T09:25:01;97466.28;;;24.04;100.00
13661;BME280;6903;49.480;11.102;2022-08-19T09:27:27;97464.47;;;23.98;100.00
13661;BME280;6903;49.480;11.102;2022-08-19T09:29:53;97466.31;;;23.97;100.00
13661;BME280;6903;49.480;11.102;2022-08-19T09:32:20;97468.44;;;23.89;100.00
13661;BME280;6903;49.480;11.102;2022-08-19T09:34:46;97470.56;;;23.80;100.00
13661;BME280;6903;49.480;11.102;2022-08-19T09:37:12;97471.69;;;23.66;100.00
13661;BME280;6903;49.480;11.102;2022-08-19T09:39:38;97476.06;;;23.54;100.00
13661;BME280;6903;49.480;11.102;2022-08-19T09:42:06;97479.41;;;23.49;100.00
13661;BME280;6903;49.480;11.102;2022-08-19T09:44:37;97475.47;;;23.52;100.00
13661;BME280;6903;49.480;11.102;2022-08-19T09:47:02;97473.13;;;23.62;100.00
13661;BME280;6903;49.480;11.102;2022-08-19T09:49:28;97459.00;;;23.73;100.00
13661;BME280;6903;49.480;11.102;2022-08-19T09:51:54;97457.44;;;23.90;100.00
13661;BME280;6903;49.480;11.102;2022-08-19T09:54:21;97455.31;;;23.99;100.00
13661;BME280;6903;49.480;11.102;2022-08-19T09:56:46;97458.97;;;24.11;100.00
13661;BME280;6903;49.480;11.102;2022-08-19T09:59:12;97464.94;;;24.19;100.00
13661;BME280;6903;49.480;11.102;2022-08-19T10:01:37;97470.84;;;24.28;100.00
13661;BME280;6903;49.480;11.102;2022-08-19T10:04:03;97478.66;;;24.36;100.00
13661;BME280;6903;49.480;11.102;2022-08-19T10:06:33;97473.22;;;24.42;100.00
13661;BME280;6903;49.480;11.102;2022-08-19T10:08:59;97473.78;;;24.51;100.00
13661;BME280;6903;49.480;11.102;2022-08-19T10:11:25;97481.44;;;24.54;100.00
13661;BME280;6903;49.480;11.102;2022-08-19T10:13:51;97486.94;;;24.65;100.00
13661;BME280;6903;49.480;11.102;2022-08-19T10:16:19;97487.75;;;24.41;100.00
13661;BME280;6903;49.480;11.102;2022-08-19T10:18:47;97477.03;;;24.35;100.00
13661;BME280;6903;49.480;11.102;2022-08-19T10:21:16;97478.88;;;24.34;100.00
13661;BME280;6903;49.480;11.102;2022-08-19T10:23:46;97483.13;;;24.24;100.00
13661;BME280;6903;49.480;11.102;2022-08-19T10:26:14;97478.69;;;24.11;100.00
13661;BME280;6903;49.480;11.102;2022-08-19T10:28:40;97482.44;;;24.04;100.00
13661;BME280;6903;49.480;11.102;2022-08-19T10:31:13;97481.63;;;24.03;100.00
13661;BME280;6903;49.480;11.102;2022-08-19T10:33:40;97485.88;;;24.17;100.00
13661;BME280;6903;49.480;11.102;2022-08-19T10:36:17;97475.72;;;24.19;100.00
13661;BME280;6903;49.480;11.102;2022-08-19T10:38:49;97478.19;;;24.21;100.00
13661;BME280;6903;49.480;11.102;2022-08-19T10:41:20;97483.88;;;24.31;100.00
13661;BME280;6903;49.480;11.102;2022-08-19T10:43:50;97488.38;;;24.43;100.00
13661;BME280;6903;49.480;11.102;2022-08-19T10:46:18;97475.66;;;24.26;100.00
13661;BME280;6903;49.480;11.102;2022-08-19T10:48:44;97484.25;;;24.16;100.00
13661;BME280;6903;49.480;11.102;2022-08-19T10:51:11;97485.31;;;24.09;100.00
13661;BME280;6903;49.480;11.102;2022-08-19T10:53:55;97491.28;;;24.17;100.00
13661;BME280;6903;49.480;11.102;2022-08-19T10:56:22;97478.94;;;24.28;100.00
13661;BME280;6903;49.480;11.102;2022-08-19T10:59:06;97481.59;;;24.34;100.00
13661;BME280;6903;49.480;11.102;2022-08-19T11:01:33;97475.97;;;24.36;100.00
13661;BME280;6903;49.480;11.102;2022-08-19T11:04:03;97483.22;;;24.42;100.00
13661;BME280;6903;49.480;11.102;2022-08-19T11:06:31;97485.06;;;24.41;100.00
13661;BME280;6903;49.480;11.102;2022-08-19T11:08:57;97492.47;;;24.46;100.00
13661;BME280;6903;49.480;11.102;2022-08-19T11:11:22;97485.34;;;24.58;100.00
13661;BME280;6903;49.480;11.102;2022-08-19T11:13:49;97485.97;;;24.53;100.00
13661;BME280;6903;49.480;11.102;2022-08-19T11:16:20;97491.59;;;24.52;100.00
13661;BME280;6903;49.480;11.102;2022-08-19T11:18:51;97489.44;;;24.36;100.00
13661;BME280;6903;49.480;11.102;2022-08-19T11:21:26;97487.19;;;24.33;100.00
13661;BME280;6903;49.480;11.102;2022-08-19T11:23:55;97484.72;;;24.31;100.00
13661;BME280;6903;49.480;11.102;2022-08-19T11:26:21;97479.81;;;24.22;100.00
13661;BME280;6903;49.480;11.102;2022-08-19T11:28:47;97481.41;;;24.05;100.00
13661;BME280;6903;49.480;11.102;2022-08-19T11:31:15;97481.25;;;24.00;100.00
13661;BME280;6903;49.480;11.102;2022-08-19T11:33:41;97477.28;;;24.02;100.00
13661;BME280;6903;49.480;11.102;2022-08-19T11:36:07;97481.19;;;24.06;100.00
13661;BME280;6903;49.480;11.102;2022-08-19T11:38:34;97487.38;;;24.07;100.00
13661;BME280;6903;49.480;11.102;2022-08-19T11:41:03;97468.22;;;23.90;100.00
13661;BME280;6903;49.480;11.102;2022-08-19T11:43:29;97472.75;;;23.52;100.00
13661;BME280;6903;49.480;11.102;2022-08-19T11:45:56;97483.25;;;23.16;100.00
13661;BME280;6903;49.480;11.102;2022-08-19T11:48:21;97477.94;;;22.83;100.00
13661;BME280;6903;49.480;11.102;2022-08-19T11:50:52;97474.06;;;22.53;100.00
13661;BME280;6903;49.480;11.102;2022-08-19T11:53:20;97480.66;;;22.37;100.00
13661;BME280;6903;49.480;11.102;2022-08-19T11:55:46;97480.66;;;22.24;100.00
13661;BME280;6903;49.480;11.102;2022-08-19T11:58:13;97465.97;;;22.14;100.00
13661;BME280;6903;49.480;11.102;2022-08-19T12:00:39;97463.09;;;22.09;100.00
13661;BME280;6903;49.480;11.102;2022-08-19T12:03:05;97465.97;;;22.14;100.00
13661;BME280;6903;49.480;11.102;2022-08-19T12:05:30;97463.28;;;22.07;100.00
13661;BME280;6903;49.480;11.102;2022-08-19T12:07:56;97472.41;;;22.13;100.00
13661;BME280;6903;49.480;11.102;2022-08-19T12:10:22;97469.28;;;22.16;100.00
13661;BME280;6903;49.480;11.102;2022-08-19T12:12:47;97474.03;;;22.20;100.00
13661;BME280;6903;49.480;11.102;2022-08-19T12:15:13;97454.19;;;22.15;100.00
13661;BME280;6903;49.480;11.102;2022-08-19T12:17:40;97469.28;;;22.09;100.00
13661;BME280;6903;49.480;11.102;2022-08-19T12:20:06;97458.53;;;22.03;100.00
13661;BME280;6903;49.480;11.102;2022-08-19T12:22:32;97471.97;;;21.96;100.00
13661;BME280;6903;49.480;11.102;2022-08-19T12:24:57;97468.03;;;21.86;100.00
13661;BME280;6903;49.480;11.102;2022-08-19T12:27:23;97477.72;;;21.80;100.00
13661;BME280;6903;49.480;11.102;2022-08-19T12:29:48;97472.75;;;21.77;100.00
13661;BME280;6903;49.480;11.102;2022-08-19T12:32:15;97478.13;;;21.84;100.00
13661;BME280;6903;49.480;11.102;2022-08-19T12:34:40;97480.00;;;21.90;100.00
13661;BME280;6903;49.480;11.102;2022-08-19T12:37:07;97475.88;;;22.00;100.00
13661;BME280;6903;49.480;11.102;2022-08-19T12:39:37;97472.19;;;22.08;100.00
13661;BME280;6903;49.480;11.102;2022-08-19T12:42:03;97464.56;;;22.11;100.00
13661;BME280;6903;49.480;11.102;2022-08-19T12:44:29;97469.28;;;22.03;100.00
13661;BME280;6903;49.480;11.102;2022-08-19T12:46:56;97475.69;;;21.95;100.00
13661;BME280;6903;49.480;11.102;2022-08-19T12:49:21;97478.94;;;21.84;100.00
13661;BME280;6903;49.480;11.102;2022-08-19T12:51:47;97474.34;;;21.72;100.00
13661;BME280;6903;49.480;11.102;2022-08-19T12:54:12;97473.13;;;21.68;100.00
13661;BME280;6903;49.480;11.102;2022-08-19T12:56:37;97476.81;;;21.67;100.00
13661;BME280;6903;49.480;11.102;2022-08-19T12:59:03;97489.00;;;21.63;100.00
13661;BME280;6903;49.480;11.102;2022-08-19T13:01:30;97488.78;;;21.64;100.00
13661;BME280;6903;49.480;11.102;2022-08-19T13:03:58;97487.31;;;21.62;100.00